sensor_id;sensor_type;location;lat;lon;timestamp;P1;durP1;ratioP1;P2;durP2;ratioP2
52015;SDS011;38032;53.326;6.472;2022-11-15T00:02:10;25.83;;;17.85;;
52015;SDS011;38032;53.326;6.472;2022-11-15T00:04:36;25.35;;;17.95;;
52015;SDS011;38032;53.326;6.472;2022-11-15T00:07:02;25.98;;;17.75;;
52015;SDS011;38032;53.326;6.472;2022-11-15T00:09:28;27.52;;;18.95;;
52015;SDS011;38032;53.326;6.472;2022-11-15T00:11:53;26.75;;;16.92;;
52015;SDS011;38032;53.326;6.472;2022-11-15T00:14:19;26.60;;;18.27;;
52015;SDS011;38032;53.326;6.472;2022-11-15T00:16:45;27.25;;;18.73;;
52015;SDS011;38032;53.326;6.472;2022-11-15T00:19:11;24.70;;;17.77;;
52015;SDS011;38032;53.326;6.472;2022-11-15T00:21:37;25.98;;;18.05;;
52015;SDS011;38032;53.326;6.472;2022-11-15T00:24:03;26.27;;;18.33;;
52015;SDS011;38032;53.326;6.472;2022-11-15T00:26:29;26.35;;;17.83;;
52015;SDS011;38032;53.326;6.472;2022-11-15T00:28:54;26.33;;;17.98;;
52015;SDS011;38032;53.326;6.472;2022-11-15T00:31:20;27.38;;;17.67;;
52015;SDS011;38032;53.326;6.472;2022-11-15T00:33:46;25.80;;;17.77;;
52015;SDS011;38032;53.326;6.472;2022-11-15T00:36:12;23.70;;;17.35;;
52015;SDS011;38032;53.326;6.472;2022-11-15T00:38:38;25.20;;;16.95;;
52015;SDS011;38032;53.326;6.472;2022-11-15T00:41:06;26.55;;;18.17;;
52015;SDS011;38032;53.326;6.472;2022-11-15T00:43:32;26.40;;;17.88;;
52015;SDS011;38032;53.326;6.472;2022-11-15T00:45:59;26.52;;;17.95;;
52015;SDS011;38032;53.326;6.472;2022-11-15T00:48:25;26.45;;;18.40;;
52015;SDS011;38032;53.326;6.472;2022-11-15T00:50:51;27.50;;;18.15;;
52015;SDS011;38032;53.326;6.472;2022-11-15T00:53:17;26.02;;;17.65;;
52015;SDS011;38032;53.326;6.472;2022-11-15T00:55:42;25.48;;;18.33;;
52015;SDS011;38032;53.326;6.472;2022-11-15T00:58:08;29.48;;;18.50;;
52015;SDS011;38032;53.326;6.472;2022-11-15T01:00:34;27.52;;;17.90;;
52015;SDS011;38032;53.326;6.472;2022-11-15T01:03:00;30.17;;;18.88;;
52015;SDS011;38032;53.326;6.472;2022-11-15T01:05:27;22.88;;;16.70;;
52015;SDS011;38032;53.326;6.472;2022-11-15T01:07:54;26.52;;;17.60;;
52015;SDS011;38032;53.326;6.472;2022-11-15T01:10:21;27.58;;;18.35;;
52015;SDS011;38032;53.326;6.472;2022-11-15T01:12:47;28.08;;;19.48;;
52015;SDS011;38032;53.326;6.472;2022-11-15T01:15:13;27.15;;;18.65;;
52015;SDS011;38032;53.326;6.472;2022-11-15T01:17:39;26.00;;;17.60;;
52015;SDS011;38032;53.326;6.472;2022-11-15T01:20:05;26.70;;;17.52;;
52015;SDS011;38032;53.326;6.472;2022-11-15T01:22:31;27.02;;;19.17;;
52015;SDS011;38032;53.326;6.472;2022-11-15T01:24:57;26.85;;;18.05;;
52015;SDS011;38032;53.326;6.472;2022-11-15T01:27:23;26.73;;;18.88;;
52015;SDS011;38032;53.326;6.472;2022-11-15T01:29:49;28.17;;;19.05;;
52015;SDS011;38032;53.326;6.472;2022-11-15T01:32:15;27.55;;;18.52;;
52015;SDS011;38032;53.326;6.472;2022-11-15T01:34:41;24.20;;;17.17;;
52015;SDS011;38032;53.326;6.472;2022-11-15T01:37:07;29.10;;;18.23;;
52015;SDS011;38032;53.326;6.472;2022-11-15T01:39:33;23.60;;;16.83;;
52015;SDS011;38032;53.326;6.472;2022-11-15T01:41:59;24.13;;;17.35;;
52015;SDS011;38032;53.326;6.472;2022-11-15T01:44:34;24.88;;;17.85;;
52015;SDS011;38032;53.326;6.472;2022-11-15T01:47:08;25.90;;;18.50;;
52015;SDS011;38032;53.326;6.472;2022-11-15T01:49:40;26.10;;;18.10;;
52015;SDS011;38032;53.326;6.472;2022-11-15T01:52:19;26.38;;;18.35;;
52015;SDS011;38032;53.326;6.472;2022-11-15T01:54:48;26.63;;;18.02;;
52015;SDS011;38032;53.326;6.472;2022-11-15T01:57:18;26.05;;;17.85;;
52015;SDS011;38032;53.326;6.472;2022-11-15T01:59:45;24.98;;;17.58;;
52015;SDS011;38032;53.326;6.472;2022-11-15T02:02:11;24.38;;;16.95;;
52015;SDS011;38032;53.326;6.472;2022-11-15T02:04:42;29.90;;;19.88;;
52015;SDS011;38032;53.326;6.472;2022-11-15T02:07:11;27.45;;;19.35;;
52015;SDS011;38032;53.326;6.472;2022-11-15T02:09:42;27.15;;;19.50;;
52015;SDS011;38032;53.326;6.472;2022-11-15T02:12:09;29.70;;;20.45;;
52015;SDS011;38032;53.326;6.472;2022-11-15T02:14:38;29.83;;;20.23;;
52015;SDS011;38032;53.326;6.472;2022-11-15T02:25:38;29.52;;;19.88;;
52015;SDS011;38032;53.326;6.472;2022-11-15T02:28:16;28.58;;;19.77;;
52015;SDS011;38032;53.326;6.472;2022-11-15T02:33:35;30.60;;;20.40;;
52015;SDS011;38032;53.326;6.472;2022-11-15T02:36:41;28.83;;;20.50;;
52015;SDS011;38032;53.326;6.472;2022-11-15T02:42:01;31.48;;;19.98;;
52015;SDS011;38032;53.326;6.472;2022-11-15T02:44:52;28.65;;;18.92;;
52015;SDS011;38032;53.326;6.472;2022-11-15T02:47:21;27.20;;;18.27;;
52015;SDS011;38032;53.326;6.472;2022-11-15T02:49:51;30.33;;;19.40;;
52015;SDS011;38032;53.326;6.472;2022-11-15T02:52:19;25.67;;;18.63;;
52015;SDS011;38032;53.326;6.472;2022-11-15T02:54:56;29.23;;;18.45;;
52015;SDS011;38032;53.326;6.472;2022-11-15T03:00:14;24.42;;;16.35;;
52015;SDS011;38032;53.326;6.472;2022-11-15T03:02:48;23.08;;;15.45;;
52015;SDS011;38032;53.326;6.472;2022-11-15T03:13:35;28.05;;;18.08;;
52015;SDS011;38032;53.326;6.472;2022-11-15T03:16:08;26.13;;;16.95;;
52015;SDS011;38032;53.326;6.472;2022-11-15T03:18:43;25.90;;;16.55;;
52015;SDS011;38032;53.326;6.472;2022-11-15T03:21:13;25.70;;;17.77;;
52015;SDS011;38032;53.326;6.472;2022-11-15T03:23:41;29.17;;;17.80;;
52015;SDS011;38032;53.326;6.472;2022-11-15T03:26:09;30.00;;;17.58;;
52015;SDS011;38032;53.326;6.472;2022-11-15T03:28:44;29.67;;;18.10;;
52015;SDS011;38032;53.326;6.472;2022-11-15T03:31:15;31.92;;;19.08;;
52015;SDS011;38032;53.326;6.472;2022-11-15T03:34:02;30.85;;;18.13;;
52015;SDS011;38032;53.326;6.472;2022-11-15T03:36:30;31.85;;;19.25;;
52015;SDS011;38032;53.326;6.472;2022-11-15T03:39:00;36.50;;;19.75;;
52015;SDS011;38032;53.326;6.472;2022-11-15T03:41:35;30.63;;;18.85;;
52015;SDS011;38032;53.326;6.472;2022-11-15T03:47:03;33.50;;;20.10;;
52015;SDS011;38032;53.326;6.472;2022-11-15T03:49:36;31.73;;;18.20;;
52015;SDS011;38032;53.326;6.472;2022-11-15T03:52:06;33.80;;;19.33;;
52015;SDS011;38032;53.326;6.472;2022-11-15T03:54:31;33.50;;;19.88;;
52015;SDS011;38032;53.326;6.472;2022-11-15T03:56:57;33.15;;;18.92;;
52015;SDS011;38032;53.326;6.472;2022-11-15T03:59:23;39.92;;;20.95;;
52015;SDS011;38032;53.326;6.472;2022-11-15T04:01:49;36.03;;;20.65;;
52015;SDS011;38032;53.326;6.472;2022-11-15T04:04:15;37.25;;;20.73;;
52015;SDS011;38032;53.326;6.472;2022-11-15T04:06:41;33.67;;;19.13;;
52015;SDS011;38032;53.326;6.472;2022-11-15T04:09:07;36.63;;;19.95;;
52015;SDS011;38032;53.326;6.472;2022-11-15T04:11:32;32.13;;;18.90;;
52015;SDS011;38032;53.326;6.472;2022-11-15T04:13:58;37.40;;;20.88;;
52015;SDS011;38032;53.326;6.472;2022-11-15T04:16:24;37.50;;;18.88;;
52015;SDS011;38032;53.326;6.472;2022-11-15T04:18:50;34.28;;;18.90;;
52015;SDS011;38032;53.326;6.472;2022-11-15T04:21:36;38.65;;;20.48;;
52015;SDS011;38032;53.326;6.472;2022-11-15T04:24:20;34.30;;;18.55;;
52015;SDS011;38032;53.326;6.472;2022-11-15T04:26:46;34.22;;;19.70;;
52015;SDS011;38032;53.326;6.472;2022-11-15T04:29:12;38.60;;;20.02;;
52015;SDS011;38032;53.326;6.472;2022-11-15T04:31:56;35.15;;;19.02;;
52015;SDS011;38032;53.326;6.472;2022-11-15T04:34:22;35.28;;;19.42;;
52015;SDS011;38032;53.326;6.472;2022-11-15T04:36:47;35.10;;;19.58;;
52015;SDS011;38032;53.326;6.472;2022-11-15T04:39:32;39.42;;;20.13;;
52015;SDS011;38032;53.326;6.472;2022-11-15T04:41:57;38.05;;;20.33;;
52015;SDS011;38032;53.326;6.472;2022-11-15T04:44:23;33.55;;;19.13;;
52015;SDS011;38032;53.326;6.472;2022-11-15T04:46:49;37.28;;;19.63;;
52015;SDS011;38032;53.326;6.472;2022-11-15T04:49:15;36.83;;;19.00;;
52015;SDS011;38032;53.326;6.472;2022-11-15T04:51:41;35.03;;;20.33;;
52015;SDS011;38032;53.326;6.472;2022-11-15T04:54:06;36.28;;;20.27;;
52015;SDS011;38032;53.326;6.472;2022-11-15T04:56:32;34.53;;;19.35;;
52015;SDS011;38032;53.326;6.472;2022-11-15T04:58:58;38.78;;;20.58;;
52015;SDS011;38032;53.326;6.472;2022-11-15T05:01:24;32.58;;;18.65;;
52015;SDS011;38032;53.326;6.472;2022-11-15T05:03:50;35.40;;;18.40;;
52015;SDS011;38032;53.326;6.472;2022-11-15T05:06:34;36.20;;;19.70;;
52015;SDS011;38032;53.326;6.472;2022-11-15T05:09:00;34.80;;;18.48;;
52015;SDS011;38032;53.326;6.472;2022-11-15T05:11:26;38.08;;;19.83;;
52015;SDS011;38032;53.326;6.472;2022-11-15T05:13:52;37.35;;;19.85;;
52015;SDS011;38032;53.326;6.472;2022-11-15T05:16:18;37.33;;;19.88;;
52015;SDS011;38032;53.326;6.472;2022-11-15T05:18:44;38.38;;;19.63;;
52015;SDS011;38032;53.326;6.472;2022-11-15T05:21:11;40.30;;;20.73;;
52015;SDS011;38032;53.326;6.472;2022-11-15T05:23:39;39.75;;;21.42;;
52015;SDS011;38032;53.326;6.472;2022-11-15T05:26:06;37.78;;;19.65;;
52015;SDS011;38032;53.326;6.472;2022-11-15T05:28:33;34.40;;;19.42;;
52015;SDS011;38032;53.326;6.472;2022-11-15T05:31:01;39.47;;;20.95;;
52015;SDS011;38032;53.326;6.472;2022-11-15T05:33:29;35.33;;;19.13;;
52015;SDS011;38032;53.326;6.472;2022-11-15T05:35:57;37.30;;;20.30;;
52015;SDS011;38032;53.326;6.472;2022-11-15T05:40:55;39.63;;;19.95;;
52015;SDS011;38032;53.326;6.472;2022-11-15T05:43:21;42.95;;;20.60;;
52015;SDS011;38032;53.326;6.472;2022-11-15T05:45:48;44.17;;;21.70;;
52015;SDS011;38032;53.326;6.472;2022-11-15T05:48:14;44.53;;;22.70;;
52015;SDS011;38032;53.326;6.472;2022-11-15T05:50:41;43.10;;;22.58;;
52015;SDS011;38032;53.326;6.472;2022-11-15T05:53:10;42.28;;;21.65;;
52015;SDS011;38032;53.326;6.472;2022-11-15T05:55:39;42.13;;;22.92;;
52015;SDS011;38032;53.326;6.472;2022-11-15T05:58:06;43.25;;;22.88;;
52015;SDS011;38032;53.326;6.472;2022-11-15T06:00:33;51.75;;;24.05;;
52015;SDS011;38032;53.326;6.472;2022-11-15T06:02:59;47.92;;;24.17;;
52015;SDS011;38032;53.326;6.472;2022-11-15T06:05:24;46.80;;;23.60;;
52015;SDS011;38032;53.326;6.472;2022-11-15T06:07:50;53.10;;;24.88;;
52015;SDS011;38032;53.326;6.472;2022-11-15T06:10:16;50.15;;;24.92;;
52015;SDS011;38032;53.326;6.472;2022-11-15T06:12:42;46.05;;;25.17;;
52015;SDS011;38032;53.326;6.472;2022-11-15T06:15:08;54.13;;;25.52;;
52015;SDS011;38032;53.326;6.472;2022-11-15T06:17:34;53.38;;;26.38;;
52015;SDS011;38032;53.326;6.472;2022-11-15T06:20:00;55.88;;;26.85;;
52015;SDS011;38032;53.326;6.472;2022-11-15T06:22:26;56.20;;;26.80;;
52015;SDS011;38032;53.326;6.472;2022-11-15T06:24:52;57.40;;;27.00;;
52015;SDS011;38032;53.326;6.472;2022-11-15T06:27:17;53.63;;;25.77;;
52015;SDS011;38032;53.326;6.472;2022-11-15T06:29:44;56.60;;;26.30;;
52015;SDS011;38032;53.326;6.472;2022-11-15T06:32:10;60.53;;;27.60;;
52015;SDS011;38032;53.326;6.472;2022-11-15T06:34:36;58.47;;;27.35;;
52015;SDS011;38032;53.326;6.472;2022-11-15T06:37:02;71.80;;;27.92;;
52015;SDS011;38032;53.326;6.472;2022-11-15T06:39:28;60.35;;;29.35;;
52015;SDS011;38032;53.326;6.472;2022-11-15T06:41:57;89.95;;;31.60;;
52015;SDS011;38032;53.326;6.472;2022-11-15T06:44:23;89.85;;;33.13;;
52015;SDS011;38032;53.326;6.472;2022-11-15T06:46:48;96.88;;;33.35;;
52015;SDS011;38032;53.326;6.472;2022-11-15T06:49:14;98.60;;;32.45;;
52015;SDS011;38032;53.326;6.472;2022-11-15T06:51:40;101.80;;;36.42;;
52015;SDS011;38032;53.326;6.472;2022-11-15T06:54:06;105.25;;;35.25;;
52015;SDS011;38032;53.326;6.472;2022-11-15T06:56:34;115.50;;;37.22;;
52015;SDS011;38032;53.326;6.472;2022-11-15T06:58:59;126.38;;;39.38;;
52015;SDS011;38032;53.326;6.472;2022-11-15T07:01:25;120.28;;;37.95;;
52015;SDS011;38032;53.326;6.472;2022-11-15T07:03:51;125.18;;;39.63;;
52015;SDS011;38032;53.326;6.472;2022-11-15T07:06:17;94.38;;;35.92;;
52015;SDS011;38032;53.326;6.472;2022-11-15T07:08:43;78.95;;;34.60;;
52015;SDS011;38032;53.326;6.472;2022-11-15T07:11:09;75.68;;;33.42;;
52015;SDS011;38032;53.326;6.472;2022-11-15T07:13:35;87.30;;;32.65;;
52015;SDS011;38032;53.326;6.472;2022-11-15T07:16:03;83.53;;;34.25;;
52015;SDS011;38032;53.326;6.472;2022-11-15T07:18:30;77.38;;;32.67;;
52015;SDS011;38032;53.326;6.472;2022-11-15T07:21:02;78.05;;;32.75;;
52015;SDS011;38032;53.326;6.472;2022-11-15T07:23:29;74.88;;;34.45;;
52015;SDS011;38032;53.326;6.472;2022-11-15T07:25:57;78.55;;;33.88;;
52015;SDS011;38032;53.326;6.472;2022-11-15T07:28:24;75.30;;;32.35;;
52015;SDS011;38032;53.326;6.472;2022-11-15T07:30:51;77.45;;;33.60;;
52015;SDS011;38032;53.326;6.472;2022-11-15T07:33:17;68.80;;;31.85;;
52015;SDS011;38032;53.326;6.472;2022-11-15T07:35:42;68.28;;;32.95;;
52015;SDS011;38032;53.326;6.472;2022-11-15T07:38:11;72.53;;;32.78;;
52015;SDS011;38032;53.326;6.472;2022-11-15T07:40:37;72.53;;;31.48;;
52015;SDS011;38032;53.326;6.472;2022-11-15T07:43:04;72.07;;;31.27;;
52015;SDS011;38032;53.326;6.472;2022-11-15T07:45:31;72.53;;;32.78;;
52015;SDS011;38032;53.326;6.472;2022-11-15T07:47:59;65.78;;;31.40;;
52015;SDS011;38032;53.326;6.472;2022-11-15T07:50:25;70.78;;;32.03;;
52015;SDS011;38032;53.326;6.472;2022-11-15T07:52:53;66.60;;;32.10;;
52015;SDS011;38032;53.326;6.472;2022-11-15T07:55:20;77.25;;;33.15;;
52015;SDS011;38032;53.326;6.472;2022-11-15T07:57:47;62.95;;;31.40;;
52015;SDS011;38032;53.326;6.472;2022-11-15T08:00:13;63.60;;;31.27;;
52015;SDS011;38032;53.326;6.472;2022-11-15T08:02:40;63.30;;;31.17;;
52015;SDS011;38032;53.326;6.472;2022-11-15T08:05:06;71.88;;;31.95;;
52015;SDS011;38032;53.326;6.472;2022-11-15T08:07:32;69.18;;;32.17;;
52015;SDS011;38032;53.326;6.472;2022-11-15T08:09:58;60.17;;;29.80;;
52015;SDS011;38032;53.326;6.472;2022-11-15T08:12:26;64.85;;;31.38;;
52015;SDS011;38032;53.326;6.472;2022-11-15T08:14:54;63.47;;;30.80;;
52015;SDS011;38032;53.326;6.472;2022-11-15T08:17:21;60.35;;;30.50;;
52015;SDS011;38032;53.326;6.472;2022-11-15T08:19:48;60.50;;;30.33;;
52015;SDS011;38032;53.326;6.472;2022-11-15T08:22:13;61.80;;;30.85;;
52015;SDS011;38032;53.326;6.472;2022-11-15T08:24:39;61.72;;;30.48;;
52015;SDS011;38032;53.326;6.472;2022-11-15T08:27:06;62.40;;;31.05;;
52015;SDS011;38032;53.326;6.472;2022-11-15T08:29:42;57.25;;;29.45;;
52015;SDS011;38032;53.326;6.472;2022-11-15T08:32:09;52.00;;;28.20;;
52015;SDS011;38032;53.326;6.472;2022-11-15T08:34:37;54.22;;;28.92;;
52015;SDS011;38032;53.326;6.472;2022-11-15T08:37:03;57.00;;;30.08;;
52015;SDS011;38032;53.326;6.472;2022-11-15T08:39:30;55.47;;;28.13;;
52015;SDS011;38032;53.326;6.472;2022-11-15T08:41:56;55.85;;;28.15;;
52015;SDS011;38032;53.326;6.472;2022-11-15T08:44:22;54.45;;;28.30;;
52015;SDS011;38032;53.326;6.472;2022-11-15T08:46:49;52.75;;;28.00;;
52015;SDS011;38032;53.326;6.472;2022-11-15T08:49:15;56.42;;;27.75;;
52015;SDS011;38032;53.326;6.472;2022-11-15T08:51:41;47.17;;;26.35;;
52015;SDS011;38032;53.326;6.472;2022-11-15T08:54:07;51.72;;;27.98;;
52015;SDS011;38032;53.326;6.472;2022-11-15T08:56:33;54.17;;;27.08;;
52015;SDS011;38032;53.326;6.472;2022-11-15T08:58:59;50.47;;;26.60;;
52015;SDS011;38032;53.326;6.472;2022-11-15T09:01:25;50.47;;;26.90;;
52015;SDS011;38032;53.326;6.472;2022-11-15T09:03:51;44.60;;;24.95;;
52015;SDS011;38032;53.326;6.472;2022-11-15T09:06:17;42.67;;;25.17;;
52015;SDS011;38032;53.326;6.472;2022-11-15T09:08:43;48.67;;;25.35;;
52015;SDS011;38032;53.326;6.472;2022-11-15T09:11:09;36.95;;;23.80;;
52015;SDS011;38032;53.326;6.472;2022-11-15T09:13:36;43.05;;;24.30;;
52015;SDS011;38032;53.326;6.472;2022-11-15T09:16:02;43.55;;;24.70;;
52015;SDS011;38032;53.326;6.472;2022-11-15T09:18:29;39.53;;;23.65;;
52015;SDS011;38032;53.326;6.472;2022-11-15T09:20:56;38.25;;;23.13;;
52015;SDS011;38032;53.326;6.472;2022-11-15T09:23:23;36.60;;;22.88;;
52015;SDS011;38032;53.326;6.472;2022-11-15T09:25:50;39.20;;;22.73;;
52015;SDS011;38032;53.326;6.472;2022-11-15T09:28:16;38.70;;;22.00;;
52015;SDS011;38032;53.326;6.472;2022-11-15T09:30:43;33.60;;;21.10;;
52015;SDS011;38032;53.326;6.472;2022-11-15T09:33:09;33.15;;;19.90;;
52015;SDS011;38032;53.326;6.472;2022-11-15T09:35:36;28.77;;;19.15;;
52015;SDS011;38032;53.326;6.472;2022-11-15T09:38:03;34.30;;;19.95;;
52015;SDS011;38032;53.326;6.472;2022-11-15T09:40:30;28.75;;;18.85;;
52015;SDS011;38032;53.326;6.472;2022-11-15T09:43:02;31.10;;;19.42;;
52015;SDS011;38032;53.326;6.472;2022-11-15T09:45:37;31.25;;;19.52;;
52015;SDS011;38032;53.326;6.472;2022-11-15T09:48:22;31.65;;;18.83;;
52015;SDS011;38032;53.326;6.472;2022-11-15T09:51:04;26.77;;;18.02;;
52015;SDS011;38032;53.326;6.472;2022-11-15T09:53:42;28.05;;;18.25;;
52015;SDS011;38032;53.326;6.472;2022-11-15T09:56:18;28.90;;;16.50;;
52015;SDS011;38032;53.326;6.472;2022-11-15T09:58:50;25.13;;;15.32;;
52015;SDS011;38032;53.326;6.472;2022-11-15T10:02:01;28.63;;;18.77;;
52015;SDS011;38032;53.326;6.472;2022-11-15T10:04:41;26.05;;;16.42;;
52015;SDS011;38032;53.326;6.472;2022-11-15T10:07:19;24.15;;;16.02;;
52015;SDS011;38032;53.326;6.472;2022-11-15T10:09:58;29.10;;;16.58;;
52015;SDS011;38032;53.326;6.472;2022-11-15T10:12:27;25.40;;;16.95;;
52015;SDS011;38032;53.326;6.472;2022-11-15T10:14:57;27.20;;;16.15;;
52015;SDS011;38032;53.326;6.472;2022-11-15T10:17:33;24.80;;;15.73;;
52015;SDS011;38032;53.326;6.472;2022-11-15T10:20:21;28.33;;;16.60;;
52015;SDS011;38032;53.326;6.472;2022-11-15T10:22:53;25.50;;;16.65;;
52015;SDS011;38032;53.326;6.472;2022-11-15T10:25:25;23.17;;;14.80;;
52015;SDS011;38032;53.326;6.472;2022-11-15T10:30:30;25.85;;;16.23;;
52015;SDS011;38032;53.326;6.472;2022-11-15T10:32:57;25.05;;;14.75;;
52015;SDS011;38032;53.326;6.472;2022-11-15T10:35:29;26.17;;;15.70;;
52015;SDS011;38032;53.326;6.472;2022-11-15T10:38:05;23.70;;;15.10;;
52015;SDS011;38032;53.326;6.472;2022-11-15T10:40:33;22.92;;;15.32;;
52015;SDS011;38032;53.326;6.472;2022-11-15T10:43:05;24.10;;;15.30;;
52015;SDS011;38032;53.326;6.472;2022-11-15T10:45:34;23.33;;;15.77;;
52015;SDS011;38032;53.326;6.472;2022-11-15T10:50:37;25.38;;;14.63;;
52015;SDS011;38032;53.326;6.472;2022-11-15T10:53:11;23.27;;;15.10;;
52015;SDS011;38032;53.326;6.472;2022-11-15T10:55:50;21.52;;;14.85;;
52015;SDS011;38032;53.326;6.472;2022-11-15T10:58:20;22.80;;;14.80;;
52015;SDS011;38032;53.326;6.472;2022-11-15T11:01:07;18.38;;;13.32;;
52015;SDS011;38032;53.326;6.472;2022-11-15T11:03:38;23.05;;;14.00;;
52015;SDS011;38032;53.326;6.472;2022-11-15T11:06:08;19.67;;;13.68;;
52015;SDS011;38032;53.326;6.472;2022-11-15T11:08:38;19.52;;;13.27;;
52015;SDS011;38032;53.326;6.472;2022-11-15T11:11:04;18.90;;;12.52;;
52015;SDS011;38032;53.326;6.472;2022-11-15T11:13:36;20.75;;;13.32;;
52015;SDS011;38032;53.326;6.472;2022-11-15T11:18:43;18.13;;;13.23;;
52015;SDS011;38032;53.326;6.472;2022-11-15T11:21:26;16.80;;;13.70;;
52015;SDS011;38032;53.326;6.472;2022-11-15T11:24:08;19.05;;;13.20;;
52015;SDS011;38032;53.326;6.472;2022-11-15T11:26:46;19.50;;;12.52;;
52015;SDS011;38032;53.326;6.472;2022-11-15T11:37:04;16.95;;;12.73;;
52015;SDS011;38032;53.326;6.472;2022-11-15T11:42:27;18.13;;;12.77;;
52015;SDS011;38032;53.326;6.472;2022-11-15T11:48:10;17.85;;;11.98;;
52015;SDS011;38032;53.326;6.472;2022-11-15T11:50:40;19.40;;;11.82;;
52015;SDS011;38032;53.326;6.472;2022-11-15T11:53:14;15.70;;;11.38;;
52015;SDS011;38032;53.326;6.472;2022-11-15T11:55:54;15.00;;;10.98;;
52015;SDS011;38032;53.326;6.472;2022-11-15T11:58:32;16.30;;;11.80;;
52015;SDS011;38032;53.326;6.472;2022-11-15T12:01:08;13.02;;;10.23;;
52015;SDS011;38032;53.326;6.472;2022-11-15T12:06:27;16.35;;;10.13;;
52015;SDS011;38032;53.326;6.472;2022-11-15T12:09:24;15.95;;;10.80;;
52015;SDS011;38032;53.326;6.472;2022-11-15T12:14:48;14.25;;;10.00;;
52015;SDS011;38032;53.326;6.472;2022-11-15T12:17:21;13.85;;;10.32;;
52015;SDS011;38032;53.326;6.472;2022-11-15T12:19:49;14.52;;;9.95;;
52015;SDS011;38032;53.326;6.472;2022-11-15T12:22:19;13.63;;;10.98;;
52015;SDS011;38032;53.326;6.472;2022-11-15T12:24:58;14.88;;;9.80;;
52015;SDS011;38032;53.326;6.472;2022-11-15T12:27:35;14.35;;;9.70;;
52015;SDS011;38032;53.326;6.472;2022-11-15T12:30:09;14.05;;;10.27;;
52015;SDS011;38032;53.326;6.472;2022-11-15T12:32:40;11.50;;;9.10;;
52015;SDS011;38032;53.326;6.472;2022-11-15T12:35:34;11.70;;;9.02;;
52015;SDS011;38032;53.326;6.472;2022-11-15T12:38:09;11.77;;;9.18;;
52015;SDS011;38032;53.326;6.472;2022-11-15T12:40:37;15.80;;;9.00;;
52015;SDS011;38032;53.326;6.472;2022-11-15T12:43:36;13.68;;;9.55;;
52015;SDS011;38032;53.326;6.472;2022-11-15T12:46:05;11.65;;;8.00;;
52015;SDS011;38032;53.326;6.472;2022-11-15T12:51:03;9.40;;;5.75;;
52015;SDS011;38032;53.326;6.472;2022-11-15T12:53:30;10.07;;;6.38;;
52015;SDS011;38032;53.326;6.472;2022-11-15T12:58:45;5.43;;;3.95;;
52015;SDS011;38032;53.326;6.472;2022-11-15T13:01:52;7.05;;;3.00;;
52015;SDS011;38032;53.326;6.472;2022-11-15T13:06:45;7.90;;;2.83;;
52015;SDS011;38032;53.326;6.472;2022-11-15T13:11:59;6.78;;;4.10;;
52015;SDS011;38032;53.326;6.472;2022-11-15T13:14:38;5.75;;;3.70;;
52015;SDS011;38032;53.326;6.472;2022-11-15T13:17:17;5.53;;;3.17;;
52015;SDS011;38032;53.326;6.472;2022-11-15T13:19:48;5.47;;;3.17;;
52015;SDS011;38032;53.326;6.472;2022-11-15T13:22:22;5.18;;;3.15;;
52015;SDS011;38032;53.326;6.472;2022-11-15T13:25:14;7.75;;;3.30;;
52015;SDS011;38032;53.326;6.472;2022-11-15T13:27:45;7.32;;;2.88;;
52015;SDS011;38032;53.326;6.472;2022-11-15T13:30:15;5.47;;;3.03;;
52015;SDS011;38032;53.326;6.472;2022-11-15T13:32:44;6.43;;;3.28;;
52015;SDS011;38032;53.326;6.472;2022-11-15T13:35:17;4.35;;;3.40;;
52015;SDS011;38032;53.326;6.472;2022-11-15T13:37:45;6.85;;;3.20;;
52015;SDS011;38032;53.326;6.472;2022-11-15T13:40:17;5.43;;;2.97;;
52015;SDS011;38032;53.326;6.472;2022-11-15T13:42:55;7.47;;;3.08;;
52015;SDS011;38032;53.326;6.472;2022-11-15T13:45:22;4.78;;;3.00;;
52015;SDS011;38032;53.326;6.472;2022-11-15T13:47:53;8.23;;;3.20;;
52015;SDS011;38032;53.326;6.472;2022-11-15T13:50:22;6.45;;;3.03;;
52015;SDS011;38032;53.326;6.472;2022-11-15T13:52:53;5.28;;;3.20;;
52015;SDS011;38032;53.326;6.472;2022-11-15T13:55:25;5.32;;;3.25;;
52015;SDS011;38032;53.326;6.472;2022-11-15T13:57:52;6.07;;;3.70;;
52015;SDS011;38032;53.326;6.472;2022-11-15T14:02:56;8.15;;;4.30;;
52015;SDS011;38032;53.326;6.472;2022-11-15T14:10:28;5.80;;;4.18;;
52015;SDS011;38032;53.326;6.472;2022-11-15T14:12:59;6.00;;;4.00;;
52015;SDS011;38032;53.326;6.472;2022-11-15T14:15:27;6.65;;;4.38;;
52015;SDS011;38032;53.326;6.472;2022-11-15T14:17:56;8.07;;;4.30;;
52015;SDS011;38032;53.326;6.472;2022-11-15T14:22:52;6.93;;;4.10;;
52015;SDS011;38032;53.326;6.472;2022-11-15T14:25:22;5.65;;;4.13;;
52015;SDS011;38032;53.326;6.472;2022-11-15T14:30:34;5.80;;;4.10;;
52015;SDS011;38032;53.326;6.472;2022-11-15T14:33:00;5.47;;;4.03;;
52015;SDS011;38032;53.326;6.472;2022-11-15T14:35:27;7.45;;;3.92;;
52015;SDS011;38032;53.326;6.472;2022-11-15T14:37:53;5.95;;;4.00;;
52015;SDS011;38032;53.326;6.472;2022-11-15T14:40:20;5.88;;;3.92;;
52015;SDS011;38032;53.326;6.472;2022-11-15T14:42:47;5.38;;;3.60;;
52015;SDS011;38032;53.326;6.472;2022-11-15T14:45:16;5.82;;;3.90;;
52015;SDS011;38032;53.326;6.472;2022-11-15T14:47:43;7.28;;;4.25;;
52015;SDS011;38032;53.326;6.472;2022-11-15T14:50:13;7.32;;;4.20;;
52015;SDS011;38032;53.326;6.472;2022-11-15T14:52:42;7.78;;;4.70;;
52015;SDS011;38032;53.326;6.472;2022-11-15T14:55:11;9.75;;;4.75;;
52015;SDS011;38032;53.326;6.472;2022-11-15T14:57:46;7.88;;;4.65;;
52015;SDS011;38032;53.326;6.472;2022-11-15T15:00:12;8.13;;;4.97;;
52015;SDS011;38032;53.326;6.472;2022-11-15T15:02:39;8.25;;;5.15;;
52015;SDS011;38032;53.326;6.472;2022-11-15T15:05:16;7.75;;;5.00;;
52015;SDS011;38032;53.326;6.472;2022-11-15T15:07:44;5.82;;;4.47;;
52015;SDS011;38032;53.326;6.472;2022-11-15T15:10:10;6.03;;;4.65;;
52015;SDS011;38032;53.326;6.472;2022-11-15T15:12:37;6.28;;;4.53;;
52015;SDS011;38032;53.326;6.472;2022-11-15T15:15:04;6.70;;;4.72;;
52015;SDS011;38032;53.326;6.472;2022-11-15T15:17:30;6.05;;;4.45;;
52015;SDS011;38032;53.326;6.472;2022-11-15T15:19:56;7.97;;;4.28;;
52015;SDS011;38032;53.326;6.472;2022-11-15T15:22:22;6.88;;;4.63;;
52015;SDS011;38032;53.326;6.472;2022-11-15T15:24:52;6.75;;;4.00;;
52015;SDS011;38032;53.326;6.472;2022-11-15T15:27:18;8.05;;;4.20;;
52015;SDS011;38032;53.326;6.472;2022-11-15T15:29:44;6.45;;;4.35;;
52015;SDS011;38032;53.326;6.472;2022-11-15T15:32:10;7.40;;;3.90;;
52015;SDS011;38032;53.326;6.472;2022-11-15T15:34:36;5.72;;;4.30;;
52015;SDS011;38032;53.326;6.472;2022-11-15T15:37:21;6.75;;;4.30;;
52015;SDS011;38032;53.326;6.472;2022-11-15T15:39:49;6.25;;;4.47;;
52015;SDS011;38032;53.326;6.472;2022-11-15T15:42:16;6.38;;;4.30;;
52015;SDS011;38032;53.326;6.472;2022-11-15T15:44:42;6.93;;;4.25;;
52015;SDS011;38032;53.326;6.472;2022-11-15T15:47:11;9.38;;;4.78;;
52015;SDS011;38032;53.326;6.472;2022-11-15T15:49:45;8.50;;;4.50;;
52015;SDS011;38032;53.326;6.472;2022-11-15T15:52:11;9.07;;;4.43;;
52015;SDS011;38032;53.326;6.472;2022-11-15T15:54:37;7.32;;;4.40;;
52015;SDS011;38032;53.326;6.472;2022-11-15T15:57:04;6.82;;;4.60;;
52015;SDS011;38032;53.326;6.472;2022-11-15T15:59:30;7.15;;;4.63;;
52015;SDS011;38032;53.326;6.472;2022-11-15T16:01:56;6.60;;;4.20;;